Skip Navigation Links
NOAA logo - Click to go to the NOAA homepage
NOAA's National Weather Service
Alaska Aviation Weather Unit
  NWS logo - Click to go to the NWS homepage
Left Navbar Graphic     21 AKDT = 05 GMT

   
NOAA is celebrating 200 years of science, service, and stewardship. Visit the NOAA 200th celebration Web site to learn more.
USA.gov is the U.S. Government's official Web portal to all Federal, state and local government Web resources and services.
Facebook
NWS on Facebook

AAWU Home :: Display TAF Add Bookmark
TAF PAFA 262320Z 2700/2806 24003KT P6SM FEW060 BKN140 BKN200
     FM271400 VRB04KT P6SM VCSH BKN040 OVC100=
METAR PAFA 262353Z 35009KT 10SM FEW050 SCT095 BKN200 10/M02 A2954=

METAR PAFA 270053Z 36009KT 10SM FEW050 FEW095 BKN200 11/M01 A2953=

METAR PAFA 270153Z 35012KT 10SM FEW050 SCT100 BKN200 10/M03 A2953=

METAR PAFA 270253Z 34010KT 10SM FEW050 SCT100 BKN200 09/M03 A2954=

METAR PAFA 270353Z 34008KT 10SM FEW060 BKN110 BKN200 08/M03 A2955=

METAR PAFA 270453Z 35010KT 10SM FEW080 BKN110 BKN200 06/M03 A2956 RMK
     AO2 SLP016 T00611033 $=


NOAA's National Weather Service
Alaska Aviation Weather Unit
6930 Sand Lake Road
Anchorage, AK 99502-1845
Disclaimer
Credits
Glossary
Privacy Policy
About Us
Career Opportunities
Contact AAWU Internet Services Site last modified: April, 17th 2012